Time;durP1;ratioP1;P1;durP2;ratioP2;P2;SDS_P1;SDS_P2;PMS_P1;PMS_P2;Temp;Humidity;BMP_temperature;BMP_pressure;BME280_temperature;BME280_humidity;BME280_pressure;Samples;Min_cycle;Max_cycle;Signal;HPM_P1;HPM_P2
2022/01/03 00:01:14;;;;;;;3.63;2.80;;;9.30;99.90;;;;;;5072421;28;20084;-74
2022/01/03 00:03:40;;;;;;;3.47;3.17;;;9.40;99.90;;;;;;5072655;28;20048;-73
2022/01/03 00:06:07;;;;;;;5.82;2.83;;;9.40;99.90;;;;;;5071926;28;20386;-73
2022/01/03 00:08:34;;;;;;;3.30;2.72;;;9.30;99.90;;;;;;5072229;28;20098;-73
2022/01/03 00:11:01;;;;;;;4.53;2.92;;;9.30;99.90;;;;;;5072326;28;20477;-75
2022/01/03 00:13:28;;;;;;;7.00;3.05;;;9.30;99.90;;;;;;5072195;28;20048;-74
2022/01/03 00:15:56;;;;;;;8.77;3.25;;;9.30;99.90;;;;;;5072028;28;20071;-77
2022/01/03 00:18:24;;;;;;;2.58;2.28;;;9.30;99.90;;;;;;5072188;28;20048;-76
2022/01/03 00:20:57;;;;;;;4.32;3.08;;;9.20;99.90;;;;;;5072264;28;20176;-75
2022/01/03 00:23:26;;;;;;;3.17;2.88;;;9.30;99.90;;;;;;5071889;28;20051;-74
2022/01/03 00:25:58;;;;;;;4.22;2.88;;;9.30;99.90;;;;;;5071490;28;20082;-72
2022/01/03 00:28:31;;;;;;;3.33;2.58;;;9.30;99.90;;;;;;5071909;28;20048;-73
2022/01/03 00:30:58;;;;;;;7.50;3.45;;;9.30;99.90;;;;;;5072337;28;20048;-73
2022/01/03 00:33:28;;;;;;;3.55;2.25;;;9.30;99.90;;;;;;5071873;28;20048;-74
2022/01/03 00:35:58;;;;;;;3.80;2.85;;;9.40;99.90;;;;;;5071475;28;20463;-75
2022/01/03 00:38:27;;;;;;;6.03;3.03;;;9.40;99.90;;;;;;5071686;28;20044;-73
2022/01/03 00:40:54;;;;;;;5.70;3.42;;;9.40;99.90;;;;;;5071935;28;20059;-73
2022/01/03 00:43:21;;;;;;;5.80;2.95;;;9.40;99.90;;;;;;5071831;28;20045;-73
2022/01/03 00:45:51;;;;;;;3.58;2.45;;;9.40;99.90;;;;;;5070876;28;20044;-73
2022/01/03 00:48:17;;;;;;;2.85;2.22;;;9.40;99.90;;;;;;5071804;28;20079;-72
2022/01/03 00:50:46;;;;;;;2.72;2.13;;;9.50;99.90;;;;;;5071708;28;20090;-73
2022/01/03 00:53:13;;;;;;;2.90;2.25;;;9.50;99.90;;;;;;5072180;28;20497;-75
2022/01/03 00:55:47;;;;;;;3.60;2.38;;;9.50;99.90;;;;;;5071459;28;20102;-71
2022/01/03 00:58:19;;;;;;;4.15;2.45;;;9.60;99.90;;;;;;5071851;28;20094;-74
2022/01/03 01:00:51;;;;;;;2.97;2.15;;;9.60;99.90;;;;;;5071793;28;20044;-73
2022/01/03 01:03:21;;;;;;;2.13;1.92;;;9.60;99.90;;;;;;5071554;28;20558;-74
2022/01/03 01:05:51;;;;;;;3.65;2.28;;;9.70;99.90;;;;;;5071339;28;20056;-75
2022/01/03 01:08:20;;;;;;;5.95;2.63;;;9.70;99.90;;;;;;5071979;28;20053;-74
2022/01/03 01:10:50;;;;;;;2.88;2.67;;;9.80;99.90;;;;;;5071654;28;20070;-75
2022/01/03 01:13:17;;;;;;;3.10;2.70;;;9.80;99.90;;;;;;5071652;28;20143;-74
2022/01/03 01:15:44;;;;;;;3.08;2.75;;;9.70;99.90;;;;;;5070797;28;20102;-73
2022/01/03 01:18:11;;;;;;;3.42;2.60;;;9.70;99.90;;;;;;5071150;28;20094;-75
2022/01/03 01:20:40;;;;;;;2.90;2.25;;;9.70;99.90;;;;;;5071783;28;20048;-74
2022/01/03 01:23:11;;;;;;;6.43;2.70;;;9.70;99.90;;;;;;5071560;28;20101;-74
2022/01/03 01:28:23;;;;;;;3.17;2.33;;;9.60;99.90;;;;;;5071293;28;20059;-74
2022/01/03 01:30:58;;;;;;;2.25;2.05;;;9.50;99.90;;;;;;5071411;28;20040;-72
2022/01/03 01:33:27;;;;;;;2.90;2.67;;;9.50;99.90;;;;;;5071341;28;20041;-72
2022/01/03 01:35:58;;;;;;;4.85;3.22;;;9.50;99.90;;;;;;5071019;28;20102;-74
2022/01/03 01:38:31;;;;;;;2.95;2.65;;;9.40;99.90;;;;;;5072724;28;20075;-74
2022/01/03 01:41:02;;;;;;;5.72;3.63;;;9.40;99.90;;;;;;5074713;28;20094;-73
2022/01/03 01:43:36;;;;;;;4.10;2.90;;;9.30;99.90;;;;;;5073696;28;20459;-72
2022/01/03 01:46:07;;;;;;;2.65;2.33;;;9.20;99.90;;;;;;5073758;28;20124;-74
2022/01/03 01:48:36;;;;;;;3.22;2.85;;;9.20;99.90;;;;;;5072099;28;20408;-75
2022/01/03 01:51:06;;;;;;;5.30;2.60;;;9.20;99.90;;;;;;5072060;28;20052;-73
2022/01/03 01:53:40;;;;;;;3.13;2.83;;;9.10;99.90;;;;;;5072048;28;20049;-71
2022/01/03 01:56:14;;;;;;;4.30;3.13;;;9.00;99.90;;;;;;5071643;28;20049;-74
2022/01/03 01:58:57;;;;;;;5.13;2.92;;;9.00;99.90;;;;;;5073206;28;20048;-72
2022/01/03 02:01:40;;;;;;;4.00;2.35;;;9.00;99.90;;;;;;5074695;28;20044;-73
2022/01/03 02:04:18;;;;;;;2.65;2.45;;;8.90;99.90;;;;;;5074073;28;20052;-74
2022/01/03 02:06:47;;;;;;;4.50;3.05;;;8.80;99.90;;;;;;5074686;28;20045;-73
2022/01/03 02:09:20;;;;;;;2.72;2.40;;;8.80;99.90;;;;;;5074550;28;20056;-73
2022/01/03 02:11:52;;;;;;;3.55;2.55;;;8.70;99.90;;;;;;5074602;28;20048;-73
2022/01/03 02:14:20;;;;;;;3.35;1.88;;;8.70;99.90;;;;;;5073911;28;20052;-72
2022/01/03 02:16:47;;;;;;;5.15;2.10;;;8.70;99.90;;;;;;5074444;28;20085;-72
2022/01/03 02:19:14;;;;;;;1.88;1.73;;;8.60;99.90;;;;;;5074352;28;20102;-74
2022/01/03 02:21:42;;;;;;;2.30;2.10;;;8.70;99.90;;;;;;5074072;28;20489;-74
2022/01/03 02:24:09;;;;;;;3.20;2.20;;;8.60;99.90;;;;;;5073741;28;20044;-74
2022/01/03 02:26:36;;;;;;;2.08;1.60;;;8.60;99.90;;;;;;5074153;28;20044;-73
2022/01/03 02:29:04;;;;;;;1.83;1.60;;;8.60;99.90;;;;;;5074077;28;20052;-73
2022/01/03 02:31:31;;;;;;;3.97;2.08;;;8.60;99.90;;;;;;5074457;28;20048;-73
2022/01/03 02:34:00;;;;;;;1.80;1.35;;;8.50;99.90;;;;;;5073986;28;20046;-73
2022/01/03 02:36:28;;;;;;;1.52;1.25;;;8.50;99.90;;;;;;5074223;28;20041;-74
2022/01/03 02:38:56;;;;;;;2.05;1.85;;;8.50;99.90;;;;;;5073865;28;20044;-73
2022/01/03 02:41:22;;;;;;;1.80;1.67;;;8.50;99.90;;;;;;5073945;28;20106;-73
2022/01/03 02:43:50;;;;;;;2.45;1.38;;;8.50;99.90;;;;;;5074021;28;20041;-73
2022/01/03 02:46:16;;;;;;;3.40;1.45;;;8.50;99.90;;;;;;5073607;28;20045;-73
2022/01/03 02:48:43;;;;;;;2.20;1.52;;;8.50;99.90;;;;;;5072511;28;20044;-73
2022/01/03 02:51:11;;;;;;;1.83;1.10;;;8.40;99.90;;;;;;5073794;28;20048;-72
2022/01/03 02:53:38;;;;;;;1.75;1.50;;;8.50;99.90;;;;;;5073619;28;20109;-73
2022/01/03 02:56:06;;;;;;;3.13;1.40;;;8.40;99.90;;;;;;5072919;28;20048;-73
2022/01/03 02:58:33;;;;;;;1.67;1.55;;;8.40;99.90;;;;;;5073799;28;20105;-71
2022/01/03 03:01:00;;;;;;;1.45;1.20;;;8.40;99.90;;;;;;5073604;28;20045;-74
2022/01/03 03:03:26;;;;;;;2.15;1.60;;;8.40;99.90;;;;;;5073675;28;20066;-73
2022/01/03 03:05:53;;;;;;;1.70;1.30;;;8.40;99.90;;;;;;5072822;28;20106;-72
2022/01/03 03:08:20;;;;;;;1.55;1.23;;;8.30;99.90;;;;;;5073030;28;20298;-72
2022/01/03 03:10:47;;;;;;;1.10;1.10;;;8.30;99.90;;;;;;5073237;28;20566;-72
2022/01/03 03:13:15;;;;;;;1.75;0.90;;;8.30;99.90;;;;;;5073280;28;20052;-72
2022/01/03 03:15:42;;;;;;;1.10;1.00;;;8.30;99.90;;;;;;5073055;28;20044;-72
2022/01/03 03:18:09;;;;;;;1.40;0.95;;;8.30;99.90;;;;;;5073497;28;20075;-74
2022/01/03 03:20:36;;;;;;;1.20;1.00;;;8.40;99.90;;;;;;5073306;28;20041;-74
2022/01/03 03:23:04;;;;;;;1.10;1.00;;;8.30;99.90;;;;;;5073030;28;20102;-74
2022/01/03 03:25:32;;;;;;;0.70;0.70;;;8.30;99.90;;;;;;5072545;28;20098;-75
2022/01/03 03:28:01;;;;;;;2.45;1.10;;;8.30;99.90;;;;;;5072888;28;20481;-75
2022/01/03 03:30:31;;;;;;;1.00;0.80;;;8.30;99.90;;;;;;5073226;28;20497;-76
2022/01/03 03:33:02;;;;;;;2.38;1.58;;;8.30;99.90;;;;;;5073442;28;20048;-75
2022/01/03 03:35:29;;;;;;;1.38;1.25;;;8.30;99.90;;;;;;5072419;28;20090;-76
2022/01/03 03:37:55;;;;;;;1.23;1.02;;;8.40;99.90;;;;;;5073331;28;20045;-76
2022/01/03 03:40:24;;;;;;;2.08;0.75;;;8.50;99.90;;;;;;5073091;28;20044;-76
2022/01/03 03:42:52;;;;;;;1.30;1.15;;;8.50;99.90;;;;;;5073109;28;20080;-78
2022/01/03 03:45:19;;;;;;;7.32;1.63;;;8.50;99.90;;;;;;5072306;28;20087;-76
2022/01/03 03:47:47;;;;;;;1.70;1.33;;;8.50;99.90;;;;;;5073057;28;20102;-75
2022/01/03 03:50:14;;;;;;;7.57;1.63;;;8.50;99.90;;;;;;5072548;28;20041;-77
2022/01/03 03:52:41;;;;;;;1.77;1.55;;;8.50;99.90;;;;;;5072943;28;20045;-75
2022/01/03 03:55:09;;;;;;;3.03;1.27;;;8.40;99.90;;;;;;5072538;28;20102;-76
2022/01/03 03:57:36;;;;;;;1.42;1.30;;;8.40;99.90;;;;;;5072934;28;20463;-75
2022/01/03 04:00:04;;;;;;;1.88;1.15;;;8.40;99.90;;;;;;5072600;28;20044;-77
2022/01/03 04:02:30;;;;;;;2.13;1.17;;;8.30;99.90;;;;;;5072475;28;20197;-77
2022/01/03 04:05:00;;;;;;;3.05;1.40;;;8.30;99.90;;;;;;5072062;28;20044;-76
2022/01/03 04:07:26;;;;;;;1.98;1.70;;;8.30;99.90;;;;;;5072734;28;20067;-73
2022/01/03 04:09:53;;;;;;;3.60;1.90;;;8.30;99.90;;;;;;5072689;28;20052;-73
2022/01/03 04:12:20;;;;;;;2.13;1.20;;;8.20;99.90;;;;;;5072226;28;20570;-74
2022/01/03 04:14:47;;;;;;;2.65;1.10;;;8.30;99.90;;;;;;5071593;28;20049;-73
2022/01/03 04:17:14;;;;;;;1.55;1.45;;;8.30;99.90;;;;;;5071792;28;20467;-73
2022/01/03 04:19:40;;;;;;;1.63;1.52;;;8.40;99.90;;;;;;5072034;28;20047;-72
2022/01/03 04:22:08;;;;;;;2.42;2.15;;;8.40;99.90;;;;;;5071494;28;20044;-72
2022/01/03 04:24:35;;;;;;;3.75;2.00;;;8.30;99.90;;;;;;5071492;28;20044;-72
2022/01/03 04:27:02;;;;;;;3.42;1.80;;;8.40;99.90;;;;;;5072153;28;20048;-73
2022/01/03 04:29:29;;;;;;;2.35;1.83;;;8.40;99.90;;;;;;5071910;28;20554;-76
2022/01/03 04:31:56;;;;;;;1.65;1.10;;;8.40;99.90;;;;;;5071948;28;20044;-74
2022/01/03 04:34:23;;;;;;;2.30;1.67;;;8.40;99.90;;;;;;5071606;28;20110;-76
2022/01/03 04:36:49;;;;;;;1.20;1.10;;;8.40;99.90;;;;;;5071667;28;20489;-77
2022/01/03 04:39:17;;;;;;;2.10;1.20;;;8.40;99.90;;;;;;5072159;28;20117;-73
2022/01/03 04:41:44;;;;;;;3.88;1.48;;;8.40;99.90;;;;;;5071554;28;20041;-73
2022/01/03 04:44:12;;;;;;;1.20;1.10;;;8.40;99.90;;;;;;5071398;28;20045;-76
2022/01/03 04:46:39;;;;;;;1.30;1.13;;;8.40;99.90;;;;;;5071879;28;20053;-75
2022/01/03 04:49:07;;;;;;;2.50;1.27;;;8.40;99.90;;;;;;5071956;28;20048;-75
2022/01/03 04:51:35;;;;;;;0.93;0.93;;;8.40;99.90;;;;;;5071852;28;20052;-73
2022/01/03 04:54:02;;;;;;;0.77;0.77;;;8.30;99.90;;;;;;5071667;28;20049;-73
2022/01/03 04:56:31;;;;;;;1.20;0.73;;;8.40;99.90;;;;;;5071605;28;20057;-75
2022/01/03 04:58:57;;;;;;;1.20;1.00;;;8.40;99.90;;;;;;5071658;28;20044;-77
2022/01/03 05:01:24;;;;;;;0.60;0.60;;;8.40;99.90;;;;;;5071698;28;20113;-74
2022/01/03 05:03:52;;;;;;;0.22;0.22;;;8.40;99.90;;;;;;5071594;28;20041;-75
2022/01/03 05:06:19;;;;;;;0.40;0.40;;;8.30;99.90;;;;;;5070994;28;20135;-72
2022/01/03 05:08:46;;;;;;;0.40;0.40;;;8.30;99.90;;;;;;5071681;28;20045;-73
2022/01/03 05:11:13;;;;;;;1.98;0.40;;;8.30;99.90;;;;;;5071434;28;20048;-73
2022/01/03 05:13:41;;;;;;;0.30;0.30;;;8.30;99.90;;;;;;5071754;28;20044;-76
2022/01/03 05:16:08;;;;;;;1.98;0.77;;;8.30;99.90;;;;;;5071197;28;20127;-76
2022/01/03 05:18:35;;;;;;;0.40;0.30;;;8.20;99.90;;;;;;5071656;28;20094;-74
2022/01/03 05:21:02;;;;;;;0.17;0.10;;;8.30;99.90;;;;;;5073006;28;20102;-79
2022/01/03 05:23:31;;;;;;;0.20;0.20;;;8.20;99.90;;;;;;5073973;28;20052;-78
2022/01/03 05:25:57;;;;;;;0.10;0.10;;;8.20;99.90;;;;;;5072269;28;20040;-78
2022/01/03 05:28:24;;;;;;;0.22;0.22;;;8.20;99.90;;;;;;5073096;28;20048;-78
2022/01/03 05:30:53;;;;;;;1.00;0.30;;;8.20;99.90;;;;;;5072272;28;20056;-73
2022/01/03 05:33:20;;;;;;;0.47;0.35;;;8.20;99.90;;;;;;5075343;28;20079;-76
2022/01/03 05:35:46;;;;;;;0.20;0.10;;;8.30;99.90;;;;;;5074606;28;20045;-75
2022/01/03 05:38:13;;;;;;;0.10;0.10;;;8.20;99.90;;;;;;5078060;28;20397;-75
2022/01/03 05:40:40;;;;;;;0.30;0.30;;;8.20;99.90;;;;;;5075083;28;20045;-74
2022/01/03 05:43:06;;;;;;;1.30;0.17;;;8.20;99.90;;;;;;5075315;28;20048;-75
2022/01/03 05:45:33;;;;;;;0.35;0.28;;;8.30;99.90;;;;;;5078330;28;20052;-82
2022/01/03 05:48:01;;;;;;;0.10;0.10;;;8.30;99.90;;;;;;5077772;28;20040;-79
2022/01/03 05:50:28;;;;;;;2.13;0.22;;;8.20;99.90;;;;;;5076146;28;20044;-73
2022/01/03 05:52:57;;;;;;;0.40;0.10;;;8.20;99.90;;;;;;5075646;28;20174;-75
2022/01/03 05:55:24;;;;;;;0.30;0.17;;;8.20;99.90;;;;;;5077116;28;20105;-78
2022/01/03 05:57:51;;;;;;;0.28;0.28;;;8.20;99.90;;;;;;5079162;28;20040;-79
2022/01/03 06:00:20;;;;;;;0.40;0.40;;;8.10;99.90;;;;;;5076550;28;20041;-83
2022/01/03 06:02:46;;;;;;;0.20;0.20;;;8.10;99.90;;;;;;5075567;28;20076;-76
2022/01/03 06:05:31;;;;;;;0.88;0.40;;;8.00;99.90;;;;;;5075034;28;20118;-77
2022/01/03 06:07:58;;;;;;;0.60;0.35;;;8.00;99.90;;;;;;5076819;28;20067;-76
2022/01/03 06:10:25;;;;;;;0.60;0.60;;;8.00;99.90;;;;;;5076181;28;20098;-76
2022/01/03 06:12:52;;;;;;;0.43;0.40;;;7.90;99.90;;;;;;5075139;28;20105;-74
2022/01/03 06:15:21;;;;;;;0.43;0.40;;;7.90;99.90;;;;;;5075951;28;20128;-74
2022/01/03 06:17:48;;;;;;;0.35;0.35;;;7.80;99.90;;;;;;5074313;28;20048;-75
2022/01/03 06:20:17;;;;;;;0.65;0.65;;;7.80;99.90;;;;;;5074774;28;20048;-76
2022/01/03 06:22:44;;;;;;;0.43;0.30;;;7.80;99.90;;;;;;5074778;28;20049;-73
2022/01/03 06:25:11;;;;;;;0.73;0.50;;;7.90;99.90;;;;;;5075143;28;20098;-76
2022/01/03 06:27:39;;;;;;;1.25;0.50;;;7.80;99.90;;;;;;5075289;28;20110;-76
2022/01/03 06:30:11;;;;;;;0.93;0.70;;;7.80;99.90;;;;;;5077971;28;20045;-76
2022/01/03 06:32:38;;;;;;;0.75;0.52;;;7.80;99.90;;;;;;5076347;28;20053;-79
2022/01/03 06:35:05;;;;;;;2.33;0.80;;;7.80;99.90;;;;;;5075700;28;20048;-74
2022/01/03 06:37:33;;;;;;;2.55;1.05;;;7.80;99.90;;;;;;5074812;28;20048;-72
2022/01/03 06:40:00;;;;;;;1.67;1.00;;;7.90;99.90;;;;;;5075105;28;20451;-77
2022/01/03 06:42:27;;;;;;;2.55;1.02;;;7.90;99.90;;;;;;5075053;28;20048;-77
2022/01/03 06:44:53;;;;;;;1.65;1.52;;;7.90;99.90;;;;;;5073625;28;20049;-73
2022/01/03 06:47:20;;;;;;;3.85;2.45;;;7.90;99.90;;;;;;5075004;28;20485;-77
2022/01/03 06:49:47;;;;;;;4.32;2.53;;;7.90;99.90;;;;;;5074847;28;20048;-76
2022/01/03 06:52:13;;;;;;;5.20;2.50;;;7.90;99.90;;;;;;5074055;28;20112;-75
2022/01/03 06:54:42;;;;;;;2.20;1.25;;;7.90;99.90;;;;;;5073781;28;20048;-77
2022/01/03 06:57:09;;;;;;;4.07;1.23;;;7.90;99.90;;;;;;5074008;28;20186;-78
2022/01/03 06:59:36;;;;;;;6.88;0.82;;;7.90;99.90;;;;;;5074097;28;20048;-75
2022/01/03 07:02:03;;;;;;;0.70;0.60;;;7.90;99.90;;;;;;5073533;28;20044;-68
2022/01/03 07:04:30;;;;;;;2.20;0.80;;;7.90;99.90;;;;;;5073560;28;20435;-75
2022/01/03 07:06:57;;;;;;;3.67;1.23;;;7.90;99.90;;;;;;5074698;28;20048;-81
2022/01/03 07:09:24;;;;;;;1.02;0.80;;;7.90;99.90;;;;;;5077113;28;20049;-76
2022/01/03 07:11:52;;;;;;;2.75;0.75;;;7.90;99.90;;;;;;5073439;28;20094;-76
2022/01/03 07:19:51;;;;;;;1.65;1.13;;;7.90;99.90;;;;;;5074342;28;20064;-78
2022/01/03 07:22:17;;;;;;;3.40;1.38;;;8.00;99.90;;;;;;5075926;28;20056;-79
2022/01/03 07:24:44;;;;;;;1.20;1.08;;;8.00;99.90;;;;;;5074076;28;20053;-75
2022/01/03 07:27:14;;;;;;;4.75;1.23;;;8.00;99.90;;;;;;5076463;28;20048;-76
2022/01/03 07:29:41;;;;;;;1.67;0.80;;;8.00;99.90;;;;;;5073764;28;20049;-77
2022/01/03 07:32:08;;;;;;;7.40;2.50;;;8.00;99.90;;;;;;5074277;28;20516;-73
2022/01/03 07:34:35;;;;;;;2.80;1.08;;;8.00;99.90;;;;;;5073964;28;20044;-72
2022/01/03 07:37:02;;;;;;;3.70;1.13;;;8.00;99.90;;;;;;5072921;28;20070;-73
2022/01/03 07:39:30;;;;;;;9.10;3.35;;;8.00;99.90;;;;;;5073235;28;20044;-73
2022/01/03 07:41:57;;;;;;;1.67;1.40;;;8.10;99.90;;;;;;5073022;28;20044;-74
2022/01/03 07:44:25;;;;;;;1.98;1.42;;;8.10;99.90;;;;;;5072386;28;20053;-75
2022/01/03 07:46:54;;;;;;;6.97;1.95;;;8.10;99.90;;;;;;5075358;28;20049;-80
2022/01/03 07:49:20;;;;;;;4.32;1.33;;;8.10;99.90;;;;;;5073957;28;20069;-78
2022/01/03 07:51:47;;;;;;;7.47;1.58;;;8.10;99.90;;;;;;5074781;28;20052;-75
2022/01/03 07:54:14;;;;;;;5.97;1.40;;;8.10;99.90;;;;;;5075020;28;20094;-81
2022/01/03 07:56:40;;;;;;;3.45;1.33;;;8.20;99.90;;;;;;5072594;28;20071;-76
2022/01/03 07:59:07;;;;;;;4.68;0.70;;;8.20;99.90;;;;;;5074023;28;20102;-78
2022/01/03 08:01:35;;;;;;;5.15;3.65;;;8.20;99.90;;;;;;5073373;28;20053;-76
2022/01/03 08:04:01;;;;;;;7.95;2.25;;;8.30;99.90;;;;;;5071803;28;20052;-76
2022/01/03 08:06:29;;;;;;;1.95;1.85;;;8.30;99.90;;;;;;5073100;28;20049;-76
2022/01/03 08:08:56;;;;;;;5.38;1.48;;;8.30;99.90;;;;;;5078149;28;20044;-77
2022/01/03 08:11:22;;;;;;;4.05;0.85;;;8.30;99.90;;;;;;5075699;28;20090;-76
2022/01/03 08:13:49;;;;;;;1.92;1.10;;;8.30;99.90;;;;;;5073295;28;20481;-76
2022/01/03 08:16:16;;;;;;;2.78;1.17;;;8.30;99.90;;;;;;5072990;28;20546;-81
2022/01/03 08:18:43;;;;;;;1.75;1.42;;;8.30;99.90;;;;;;5073518;28;20113;-80
2022/01/03 08:21:10;;;;;;;4.18;1.30;;;8.30;99.90;;;;;;5073640;28;20048;-80
2022/01/03 08:23:37;;;;;;;6.32;1.48;;;8.30;99.90;;;;;;5073350;28;20493;-78
2022/01/03 08:26:04;;;;;;;2.65;1.73;;;8.30;99.90;;;;;;5073014;28;20479;-76
2022/01/03 08:28:30;;;;;;;2.40;1.13;;;8.30;99.90;;;;;;5072627;28;20044;-75
2022/01/03 08:30:57;;;;;;;9.80;2.75;;;8.30;99.90;;;;;;5073154;28;20052;-75
2022/01/03 08:33:24;;;;;;;3.83;1.15;;;8.30;99.90;;;;;;5072123;28;20048;-75
2022/01/03 08:35:53;;;;;;;3.20;0.98;;;8.40;99.90;;;;;;5071642;28;20044;-75
2022/01/03 08:38:21;;;;;;;8.55;1.05;;;8.40;99.90;;;;;;5071806;28;20069;-74
2022/01/03 08:40:48;;;;;;;5.93;1.77;;;8.50;99.90;;;;;;5072051;28;20055;-74
2022/01/03 08:43:14;;;;;;;2.35;1.13;;;8.50;99.90;;;;;;5072117;28;20528;-76
2022/01/03 08:45:41;;;;;;;3.88;0.80;;;8.50;99.90;;;;;;5071258;28;20041;-76
2022/01/03 08:48:08;;;;;;;4.45;1.67;;;8.60;99.90;;;;;;5071632;28;20044;-76
2022/01/03 08:50:34;;;;;;;1.52;1.10;;;8.60;99.90;;;;;;5071846;28;20074;-75
2022/01/03 08:53:04;;;;;;;11.88;2.70;;;8.50;99.90;;;;;;5071872;28;20315;-76
2022/01/03 08:55:31;;;;;;;3.40;1.38;;;8.60;99.90;;;;;;5071140;28;20040;-76
2022/01/03 08:57:58;;;;;;;3.25;1.73;;;8.60;99.90;;;;;;5071841;28;20049;-75
2022/01/03 09:00:25;;;;;;;5.70;1.40;;;8.80;99.90;;;;;;5071568;28;20048;-74
2022/01/03 09:02:52;;;;;;;3.58;1.40;;;9.50;99.90;;;;;;5071431;28;20052;-75
2022/01/03 09:05:18;;;;;;;3.10;1.85;;;10.20;99.90;;;;;;5071123;28;20045;-75
2022/01/03 09:07:45;;;;;;;5.40;1.27;;;10.50;99.90;;;;;;5071564;28;20040;-76
2022/01/03 09:10:13;;;;;;;4.25;1.20;;;10.60;99.90;;;;;;5071974;28;20044;-77
2022/01/03 09:12:40;;;;;;;4.03;2.28;;;10.50;99.90;;;;;;5071602;28;20098;-77
2022/01/03 09:15:07;;;;;;;1.65;1.25;;;10.40;99.90;;;;;;5071176;28;20051;-76
2022/01/03 09:17:34;;;;;;;1.77;1.35;;;10.20;99.90;;;;;;5071643;28;20045;-77
2022/01/03 09:20:01;;;;;;;3.22;1.15;;;10.30;99.90;;;;;;5071263;28;20078;-77
2022/01/03 09:22:33;;;;;;;4.75;1.02;;;10.50;99.90;;;;;;5071628;28;20044;-77
2022/01/03 09:30:29;;;;;;;5.30;1.30;;;10.80;99.90;;;;;;5071244;28;20048;-77
2022/01/03 09:32:56;;;;;;;6.47;1.45;;;10.30;99.90;;;;;;5071894;28;20483;-75
2022/01/03 09:35:23;;;;;;;6.80;2.15;;;10.10;99.90;;;;;;5071975;28;20500;-76
2022/01/03 09:37:50;;;;;;;7.07;2.53;;;10.00;99.90;;;;;;5072554;28;20044;-76
2022/01/03 09:40:17;;;;;;;2.53;1.25;;;10.00;99.90;;;;;;5073122;28;20057;-78
2022/01/03 09:42:50;;;;;;;3.75;1.23;;;9.80;99.90;;;;;;5072417;28;20040;-77
2022/01/03 09:45:17;;;;;;;7.45;1.42;;;9.60;99.90;;;;;;5071689;28;20489;-76
2022/01/03 09:47:45;;;;;;;4.45;1.85;;;9.60;99.90;;;;;;5072446;28;20094;-77
2022/01/03 09:50:14;;;;;;;13.60;3.05;;;9.60;99.90;;;;;;5072349;28;20048;-76
2022/01/03 09:52:43;;;;;;;8.35;1.67;;;9.60;99.90;;;;;;5072431;28;20044;-75
2022/01/03 09:55:11;;;;;;;6.80;1.85;;;9.50;99.90;;;;;;5072361;28;20070;-76
2022/01/03 09:57:38;;;;;;;9.10;1.77;;;9.50;99.90;;;;;;5072379;28;20048;-76
2022/01/03 10:00:08;;;;;;;5.38;1.27;;;9.60;99.90;;;;;;5073011;28;20052;-75
2022/01/03 10:02:35;;;;;;;2.25;1.00;;;9.60;99.90;;;;;;5072790;28;20056;-75
2022/01/03 10:05:02;;;;;;;4.72;1.13;;;9.60;99.90;;;;;;5072236;28;20052;-77
2022/01/03 10:07:29;;;;;;;2.85;2.00;;;9.60;99.90;;;;;;5072295;28;20045;-76
2022/01/03 10:09:56;;;;;;;3.25;1.33;;;9.60;99.90;;;;;;5072275;28;20045;-77
2022/01/03 10:12:23;;;;;;;1.73;1.02;;;9.70;99.90;;;;;;5072130;28;20455;-76
2022/01/03 10:14:50;;;;;;;6.28;2.00;;;9.90;99.90;;;;;;5071552;28;20049;-77
2022/01/03 10:17:18;;;;;;;3.53;1.40;;;10.70;99.90;;;;;;5072187;28;20033;-77
2022/01/03 10:19:57;;;;;;;3.17;1.20;;;11.80;99.90;;;;;;5074024;28;20625;-76
2022/01/03 10:22:25;;;;;;;3.92;0.85;;;11.50;99.90;;;;;;5075556;28;20079;-75
2022/01/03 10:24:53;;;;;;;1.50;1.05;;;10.90;99.90;;;;;;5074182;28;20049;-75
2022/01/03 10:27:21;;;;;;;4.95;2.22;;;11.40;99.90;;;;;;5074545;28;20048;-77
2022/01/03 10:29:56;;;;;;;4.40;1.17;;;11.30;99.90;;;;;;5074463;28;20105;-75
2022/01/03 10:32:29;;;;;;;3.35;1.33;;;10.90;99.90;;;;;;5074639;28;20535;-75
2022/01/03 10:34:57;;;;;;;7.13;1.75;;;10.40;99.90;;;;;;5074210;28;20512;-76
2022/01/03 10:37:36;;;;;;;3.15;1.30;;;10.30;99.90;;;;;;5075705;28;20093;-76
2022/01/03 10:40:25;;;;;;;6.53;1.30;;;10.10;99.90;;;;;;5074444;28;20051;-76
2022/01/03 10:42:53;;;;;;;3.30;1.65;;;10.10;99.90;;;;;;5074249;28;20083;-76
2022/01/03 10:45:34;;;;;;;5.43;1.45;;;10.30;99.90;;;;;;5074322;28;20131;-76
2022/01/03 10:48:04;;;;;;;3.05;1.17;;;10.70;99.90;;;;;;5074397;28;20098;-76
2022/01/03 10:50:31;;;;;;;4.07;2.05;;;11.10;99.90;;;;;;5075171;28;20118;-77
2022/01/03 10:52:58;;;;;;;1.88;1.40;;;12.30;99.90;;;;;;5074349;28;20566;-76
2022/01/03 10:55:33;;;;;;;3.95;1.65;;;13.00;99.90;;;;;;5075152;28;20052;-75
2022/01/03 10:58:02;;;;;;;10.65;2.20;;;14.20;99.90;;;;;;5077153;28;20469;-74
2022/01/03 11:00:30;;;;;;;9.32;2.17;;;14.20;99.90;;;;;;5074739;28;20110;-73
2022/01/03 11:03:23;;;;;;;11.07;2.78;;;12.90;99.90;;;;;;5074876;28;20048;-74
2022/01/03 11:05:54;;;;;;;3.85;1.67;;;11.90;99.90;;;;;;5074213;28;20102;-76
2022/01/03 11:11:07;;;;;;;6.82;2.42;;;11.40;99.90;;;;;;5074044;28;20055;-75
2022/01/03 11:13:38;;;;;;;5.43;2.17;;;11.30;99.90;;;;;;5074190;28;20048;-75
2022/01/03 11:16:08;;;;;;;4.68;2.40;;;11.10;99.90;;;;;;5073061;28;20049;-75
2022/01/03 11:18:37;;;;;;;13.25;3.08;;;11.10;99.90;;;;;;5074742;28;20068;-77
2022/01/03 11:21:11;;;;;;;6.20;2.30;;;11.10;99.90;;;;;;5073883;28;20420;-75
2022/01/03 11:23:39;;;;;;;6.53;2.38;;;10.90;99.90;;;;;;5074140;28;20051;-76
2022/01/03 11:26:11;;;;;;;5.15;2.40;;;10.80;99.90;;;;;;5073087;28;20451;-75
2022/01/03 11:28:39;;;;;;;;;;;10.60;99.90;;;;;;5074052;28;20051;-77
2022/01/03 11:31:06;;;;;;;7.95;3.17;;;10.60;99.90;;;;;;5073922;28;19924;-77
2022/01/03 11:33:36;;;;;;;5.20;2.60;;;10.60;99.90;;;;;;5074388;28;20189;-75
2022/01/03 11:36:04;;;;;;;5.30;2.92;;;10.50;99.90;;;;;;5073287;28;20098;-75
2022/01/03 11:38:34;;;;;;;4.35;3.03;;;10.40;99.90;;;;;;5073357;28;20094;-75
2022/01/03 11:41:04;;;;;;;8.93;3.08;;;10.40;99.90;;;;;;5072792;28;20090;-75
2022/01/03 11:43:31;;;;;;;7.30;2.45;;;10.30;99.90;;;;;;5073505;28;20048;-75
2022/01/03 11:46:00;;;;;;;6.20;2.10;;;10.30;99.90;;;;;;5073012;28;20052;-75
2022/01/03 11:48:28;;;;;;;21.25;8.98;;;10.30;99.90;;;;;;5073285;28;20118;-75
2022/01/03 11:50:58;;;;;;;11.82;4.90;;;10.30;99.90;;;;;;5072407;28;20052;-74
2022/01/03 11:53:26;;;;;;;8.63;2.83;;;10.40;99.90;;;;;;5072791;28;20110;-74
2022/01/03 11:55:53;;;;;;;6.63;2.90;;;10.50;99.90;;;;;;5072489;28;20041;-74
2022/01/03 11:58:45;;;;;;;11.95;2.90;;;10.40;99.90;;;;;;5073276;28;20098;-74
2022/01/03 12:04:00;;;;;;;6.70;2.08;;;10.30;99.90;;;;;;5072674;28;19936;-75
2022/01/03 12:06:32;;;;;;;6.80;3.17;;;10.30;99.90;;;;;;5073214;28;20497;-74
2022/01/03 12:09:03;;;;;;;11.52;3.03;;;10.50;99.90;;;;;;5074662;28;20068;-75
2022/01/03 12:11:30;;;;;;;8.85;2.38;;;10.50;99.90;;;;;;5074881;28;20044;-75
2022/01/03 12:13:58;;;;;;;9.73;2.72;;;11.30;99.90;;;;;;5073940;28;20051;-74
2022/01/03 12:16:46;;;;;;;7.72;3.60;;;12.80;99.90;;;;;;5073692;28;20565;-75
2022/01/03 12:19:14;;;;;;;5.78;2.85;;;12.80;99.90;;;;;;5074899;28;20467;-74
2022/01/03 12:21:53;;;;;;;5.95;2.08;;;12.40;99.90;;;;;;5073433;28;20048;-75
2022/01/03 12:24:49;;;;;;;4.85;1.85;;;11.80;99.90;;;;;;5075079;28;20052;-77
2022/01/03 12:27:41;;;;;;;4.43;2.45;;;11.50;99.90;;;;;;5080867;28;20048;-77
2022/01/03 12:30:14;;;;;;;4.50;2.20;;;11.10;99.90;;;;;;5071800;28;20052;-76
2022/01/03 12:32:42;;;;;;;6.10;3.50;;;10.90;99.90;;;;;;5072768;28;20465;-75
2022/01/03 12:35:20;;;;;;;6.88;3.28;;;10.80;99.90;;;;;;5073704;28;20047;-77
2022/01/03 12:38:13;;;;;;;7.10;2.63;;;10.70;99.90;;;;;;5072575;28;20048;-79
2022/01/03 12:40:52;;;;;;;9.55;2.30;;;10.70;99.90;;;;;;5076967;28;20079;-76
2022/01/03 12:43:20;;;;;;;6.50;3.83;;;10.60;99.90;;;;;;5072696;28;20048;-74
2022/01/03 12:45:51;;;;;;;3.88;1.98;;;10.60;99.90;;;;;;5071779;28;20048;-76
2022/01/03 12:48:19;;;;;;;4.47;2.25;;;10.60;99.90;;;;;;5074060;28;20048;-76
2022/01/03 12:51:04;;;;;;;4.72;1.90;;;10.60;99.90;;;;;;5074147;28;20056;-77
2022/01/03 12:53:41;;;;;;;6.30;3.20;;;10.50;99.90;;;;;;5073564;28;20090;-77
2022/01/03 12:56:10;;;;;;;4.72;2.20;;;10.50;99.90;;;;;;5074491;28;20066;-77
2022/01/03 12:58:42;;;;;;;5.43;2.40;;;10.60;99.90;;;;;;5076506;28;20041;-78
2022/01/03 13:01:27;;;;;;;5.38;1.80;;;10.70;99.90;;;;;;5075069;28;20048;-77
2022/01/03 13:03:55;;;;;;;13.50;3.33;;;10.90;99.90;;;;;;5078786;28;20044;-76
2022/01/03 13:06:26;;;;;;;7.63;2.10;;;10.90;99.90;;;;;;5072615;28;20102;-77
2022/01/03 13:09:09;;;;;;;7.13;3.15;;;10.90;99.90;;;;;;5073297;28;20098;-77
2022/01/03 13:11:38;;;;;;;7.85;2.15;;;10.80;99.90;;;;;;5072685;28;20056;-75
2022/01/03 13:14:07;;;;;;;4.82;2.63;;;11.20;99.90;;;;;;5071703;28;20056;-74
2022/01/03 13:16:35;;;;;;;5.85;2.63;;;11.00;99.90;;;;;;5071814;28;20049;-74
2022/01/03 13:19:04;;;;;;;6.75;1.77;;;11.00;99.90;;;;;;5071887;28;20098;-74
2022/01/03 13:21:35;;;;;;;7.18;2.03;;;11.00;99.90;;;;;;5071394;28;20049;-75
2022/01/03 13:24:08;;;;;;;7.35;1.50;;;10.90;99.90;;;;;;5071298;28;20413;-76